sensor_id;sensor_type;location;lat;lon;timestamp;P1;durP1;ratioP1;P2;durP2;ratioP2
32768;SDS011;23049;54.304;8.826;2022-08-03T00:01:54;19.58;;;16.20;;
32768;SDS011;23049;54.304;8.826;2022-08-03T00:04:20;17.63;;;15.82;;
32768;SDS011;23049;54.304;8.826;2022-08-03T00:06:45;21.95;;;16.02;;
32768;SDS011;23049;54.304;8.826;2022-08-03T00:09:11;20.88;;;16.85;;
32768;SDS011;23049;54.304;8.826;2022-08-03T00:11:37;22.85;;;16.33;;
32768;SDS011;23049;54.304;8.826;2022-08-03T00:14:03;16.98;;;13.40;;
32768;SDS011;23049;54.304;8.826;2022-08-03T00:16:30;19.48;;;15.73;;
32768;SDS011;23049;54.304;8.826;2022-08-03T00:18:56;25.23;;;14.55;;
32768;SDS011;23049;54.304;8.826;2022-08-03T00:21:21;16.85;;;13.95;;
32768;SDS011;23049;54.304;8.826;2022-08-03T00:23:47;14.65;;;12.55;;
32768;SDS011;23049;54.304;8.826;2022-08-03T00:26:13;15.00;;;13.40;;
32768;SDS011;23049;54.304;8.826;2022-08-03T00:28:38;17.13;;;14.63;;
32768;SDS011;23049;54.304;8.826;2022-08-03T00:31:04;20.27;;;13.48;;
32768;SDS011;23049;54.304;8.826;2022-08-03T00:33:31;15.13;;;13.30;;
32768;SDS011;23049;54.304;8.826;2022-08-03T00:35:56;17.27;;;13.38;;
32768;SDS011;23049;54.304;8.826;2022-08-03T00:40:38;20.05;;;14.38;;
32768;SDS011;23049;54.304;8.826;2022-08-03T00:43:04;16.27;;;13.52;;
32768;SDS011;23049;54.304;8.826;2022-08-03T00:45:32;18.50;;;14.10;;
32768;SDS011;23049;54.304;8.826;2022-08-03T00:48:02;21.05;;;15.70;;
32768;SDS011;23049;54.304;8.826;2022-08-03T00:50:29;22.70;;;15.15;;
32768;SDS011;23049;54.304;8.826;2022-08-03T00:52:58;17.52;;;15.25;;
32768;SDS011;23049;54.304;8.826;2022-08-03T00:55:25;19.05;;;15.07;;
32768;SDS011;23049;54.304;8.826;2022-08-03T00:57:51;18.00;;;14.13;;
32768;SDS011;23049;54.304;8.826;2022-08-03T01:00:19;19.13;;;15.18;;
32768;SDS011;23049;54.304;8.826;2022-08-03T01:02:47;17.27;;;15.05;;
32768;SDS011;23049;54.304;8.826;2022-08-03T01:05:13;23.92;;;17.08;;
32768;SDS011;23049;54.304;8.826;2022-08-03T01:10:46;19.60;;;15.77;;
32768;SDS011;23049;54.304;8.826;2022-08-03T01:13:30;21.40;;;16.10;;
32768;SDS011;23049;54.304;8.826;2022-08-03T01:16:08;19.88;;;15.68;;
32768;SDS011;23049;54.304;8.826;2022-08-03T01:18:55;24.90;;;17.75;;
32768;SDS011;23049;54.304;8.826;2022-08-03T01:21:27;20.73;;;16.52;;
32768;SDS011;23049;54.304;8.826;2022-08-03T01:24:02;23.50;;;17.75;;
32768;SDS011;23049;54.304;8.826;2022-08-03T01:32:21;29.92;;;23.42;;
32768;SDS011;23049;54.304;8.826;2022-08-03T01:35:00;29.85;;;23.58;;
32768;SDS011;23049;54.304;8.826;2022-08-03T01:37:40;31.60;;;23.60;;
32768;SDS011;23049;54.304;8.826;2022-08-03T01:40:14;33.30;;;25.05;;
32768;SDS011;23049;54.304;8.826;2022-08-03T01:42:41;33.70;;;25.45;;
32768;SDS011;23049;54.304;8.826;2022-08-03T01:45:10;38.38;;;25.67;;
32768;SDS011;23049;54.304;8.826;2022-08-03T01:47:37;35.55;;;26.60;;
32768;SDS011;23049;54.304;8.826;2022-08-03T01:50:04;36.17;;;27.88;;
32768;SDS011;23049;54.304;8.826;2022-08-03T01:52:32;34.80;;;26.90;;
32768;SDS011;23049;54.304;8.826;2022-08-03T01:54:59;40.00;;;28.10;;
32768;SDS011;23049;54.304;8.826;2022-08-03T01:57:27;40.22;;;28.35;;
32768;SDS011;23049;54.304;8.826;2022-08-03T01:59:55;38.63;;;28.65;;
32768;SDS011;23049;54.304;8.826;2022-08-03T02:02:23;37.30;;;30.00;;
32768;SDS011;23049;54.304;8.826;2022-08-03T02:04:51;39.85;;;31.45;;
32768;SDS011;23049;54.304;8.826;2022-08-03T02:07:18;40.33;;;31.05;;
32768;SDS011;23049;54.304;8.826;2022-08-03T02:09:46;37.33;;;29.88;;
32768;SDS011;23049;54.304;8.826;2022-08-03T02:12:15;40.47;;;29.67;;
32768;SDS011;23049;54.304;8.826;2022-08-03T02:14:43;38.38;;;29.20;;
32768;SDS011;23049;54.304;8.826;2022-08-03T02:17:09;37.05;;;28.38;;
32768;SDS011;23049;54.304;8.826;2022-08-03T02:19:38;34.63;;;28.83;;
32768;SDS011;23049;54.304;8.826;2022-08-03T02:22:07;37.50;;;28.73;;
32768;SDS011;23049;54.304;8.826;2022-08-03T02:24:35;33.15;;;26.65;;
32768;SDS011;23049;54.304;8.826;2022-08-03T02:27:01;33.70;;;26.00;;
32768;SDS011;23049;54.304;8.826;2022-08-03T02:29:32;34.13;;;24.13;;
32768;SDS011;23049;54.304;8.826;2022-08-03T02:32:00;31.38;;;23.60;;
32768;SDS011;23049;54.304;8.826;2022-08-03T02:34:28;33.10;;;24.83;;
32768;SDS011;23049;54.304;8.826;2022-08-03T02:36:57;35.28;;;24.75;;
32768;SDS011;23049;54.304;8.826;2022-08-03T02:39:24;36.33;;;26.20;;
32768;SDS011;23049;54.304;8.826;2022-08-03T02:41:54;34.25;;;23.90;;
32768;SDS011;23049;54.304;8.826;2022-08-03T02:44:26;33.75;;;25.15;;
32768;SDS011;23049;54.304;8.826;2022-08-03T02:46:57;32.55;;;22.95;;
32768;SDS011;23049;54.304;8.826;2022-08-03T02:49:26;34.25;;;23.45;;
32768;SDS011;23049;54.304;8.826;2022-08-03T02:51:52;32.40;;;22.52;;
32768;SDS011;23049;54.304;8.826;2022-08-03T02:54:20;29.75;;;21.85;;
32768;SDS011;23049;54.304;8.826;2022-08-03T02:56:47;27.30;;;20.77;;
32768;SDS011;23049;54.304;8.826;2022-08-03T02:59:13;28.90;;;20.13;;
32768;SDS011;23049;54.304;8.826;2022-08-03T03:01:40;33.03;;;19.75;;
32768;SDS011;23049;54.304;8.826;2022-08-03T03:04:08;29.23;;;17.83;;
32768;SDS011;23049;54.304;8.826;2022-08-03T03:06:35;27.73;;;20.13;;
32768;SDS011;23049;54.304;8.826;2022-08-03T03:09:02;27.05;;;18.88;;
32768;SDS011;23049;54.304;8.826;2022-08-03T03:11:28;29.88;;;19.58;;
32768;SDS011;23049;54.304;8.826;2022-08-03T03:13:55;28.13;;;19.83;;
32768;SDS011;23049;54.304;8.826;2022-08-03T03:18:54;27.48;;;17.63;;
32768;SDS011;23049;54.304;8.826;2022-08-03T03:21:21;25.25;;;17.98;;
32768;SDS011;23049;54.304;8.826;2022-08-03T03:23:48;23.55;;;17.40;;
32768;SDS011;23049;54.304;8.826;2022-08-03T03:26:14;33.00;;;20.52;;
32768;SDS011;23049;54.304;8.826;2022-08-03T03:28:40;30.70;;;19.67;;
32768;SDS011;23049;54.304;8.826;2022-08-03T03:31:06;28.92;;;19.42;;
32768;SDS011;23049;54.304;8.826;2022-08-03T03:33:33;24.92;;;17.80;;
32768;SDS011;23049;54.304;8.826;2022-08-03T03:36:00;25.20;;;17.67;;
32768;SDS011;23049;54.304;8.826;2022-08-03T03:38:28;23.90;;;17.83;;
32768;SDS011;23049;54.304;8.826;2022-08-03T03:40:54;27.73;;;19.60;;
32768;SDS011;23049;54.304;8.826;2022-08-03T03:43:21;32.15;;;19.50;;
32768;SDS011;23049;54.304;8.826;2022-08-03T03:45:47;30.58;;;18.48;;
32768;SDS011;23049;54.304;8.826;2022-08-03T03:48:13;27.50;;;19.33;;
32768;SDS011;23049;54.304;8.826;2022-08-03T03:50:39;28.92;;;18.55;;
32768;SDS011;23049;54.304;8.826;2022-08-03T03:53:07;29.75;;;19.45;;
32768;SDS011;23049;54.304;8.826;2022-08-03T03:55:37;23.92;;;19.25;;
32768;SDS011;23049;54.304;8.826;2022-08-03T03:58:03;26.00;;;19.17;;
32768;SDS011;23049;54.304;8.826;2022-08-03T04:00:29;22.92;;;18.15;;
32768;SDS011;23049;54.304;8.826;2022-08-03T04:02:55;24.42;;;17.17;;
32768;SDS011;23049;54.304;8.826;2022-08-03T04:05:21;26.63;;;17.38;;
32768;SDS011;23049;54.304;8.826;2022-08-03T04:08:06;19.77;;;16.05;;
32768;SDS011;23049;54.304;8.826;2022-08-03T04:11:04;22.92;;;15.75;;
32768;SDS011;23049;54.304;8.826;2022-08-03T04:16:21;22.23;;;13.40;;
32768;SDS011;23049;54.304;8.826;2022-08-03T04:21:22;17.88;;;13.07;;
32768;SDS011;23049;54.304;8.826;2022-08-03T04:23:50;19.80;;;12.32;;
32768;SDS011;23049;54.304;8.826;2022-08-03T04:26:20;19.98;;;10.50;;
32768;SDS011;23049;54.304;8.826;2022-08-03T04:28:47;18.98;;;10.48;;
32768;SDS011;23049;54.304;8.826;2022-08-03T04:31:15;13.95;;;10.95;;
32768;SDS011;23049;54.304;8.826;2022-08-03T04:33:42;20.98;;;13.35;;
32768;SDS011;23049;54.304;8.826;2022-08-03T04:36:09;19.40;;;13.25;;
32768;SDS011;23049;54.304;8.826;2022-08-03T04:38:51;18.17;;;15.67;;
32768;SDS011;23049;54.304;8.826;2022-08-03T04:41:24;19.70;;;14.95;;
32768;SDS011;23049;54.304;8.826;2022-08-03T04:43:52;22.02;;;15.25;;
32768;SDS011;23049;54.304;8.826;2022-08-03T04:46:20;25.92;;;16.48;;
32768;SDS011;23049;54.304;8.826;2022-08-03T04:48:49;23.70;;;14.52;;
32768;SDS011;23049;54.304;8.826;2022-08-03T04:51:15;19.02;;;13.88;;
32768;SDS011;23049;54.304;8.826;2022-08-03T04:53:41;20.70;;;13.82;;
32768;SDS011;23049;54.304;8.826;2022-08-03T04:56:07;24.35;;;14.02;;
32768;SDS011;23049;54.304;8.826;2022-08-03T04:58:33;28.52;;;13.90;;
32768;SDS011;23049;54.304;8.826;2022-08-03T05:03:31;19.15;;;13.18;;
32768;SDS011;23049;54.304;8.826;2022-08-03T05:05:57;21.00;;;12.52;;
32768;SDS011;23049;54.304;8.826;2022-08-03T05:08:22;20.80;;;15.55;;
32768;SDS011;23049;54.304;8.826;2022-08-03T05:10:48;19.05;;;13.45;;
32768;SDS011;23049;54.304;8.826;2022-08-03T05:13:14;18.23;;;11.57;;
32768;SDS011;23049;54.304;8.826;2022-08-03T05:15:40;13.75;;;10.60;;
32768;SDS011;23049;54.304;8.826;2022-08-03T05:18:06;17.63;;;10.05;;
32768;SDS011;23049;54.304;8.826;2022-08-03T05:20:31;13.45;;;9.68;;
32768;SDS011;23049;54.304;8.826;2022-08-03T05:22:57;16.20;;;8.70;;
32768;SDS011;23049;54.304;8.826;2022-08-03T05:25:25;14.00;;;9.68;;
32768;SDS011;23049;54.304;8.826;2022-08-03T05:27:51;13.55;;;9.52;;
32768;SDS011;23049;54.304;8.826;2022-08-03T05:30:17;12.35;;;8.13;;
32768;SDS011;23049;54.304;8.826;2022-08-03T05:32:43;18.70;;;8.60;;
32768;SDS011;23049;54.304;8.826;2022-08-03T05:35:08;14.57;;;7.90;;
32768;SDS011;23049;54.304;8.826;2022-08-03T05:37:34;11.10;;;6.93;;
32768;SDS011;23049;54.304;8.826;2022-08-03T05:40:00;11.48;;;6.95;;
32768;SDS011;23049;54.304;8.826;2022-08-03T05:42:26;12.43;;;6.47;;
32768;SDS011;23049;54.304;8.826;2022-08-03T05:44:51;11.07;;;6.38;;
32768;SDS011;23049;54.304;8.826;2022-08-03T05:47:17;10.65;;;6.35;;
32768;SDS011;23049;54.304;8.826;2022-08-03T05:49:42;11.73;;;5.82;;
32768;SDS011;23049;54.304;8.826;2022-08-03T05:52:08;9.60;;;5.45;;
32768;SDS011;23049;54.304;8.826;2022-08-03T05:54:34;14.68;;;6.65;;
32768;SDS011;23049;54.304;8.826;2022-08-03T05:56:59;9.13;;;5.57;;
32768;SDS011;23049;54.304;8.826;2022-08-03T05:59:25;14.75;;;5.85;;
32768;SDS011;23049;54.304;8.826;2022-08-03T06:01:51;12.32;;;6.68;;
32768;SDS011;23049;54.304;8.826;2022-08-03T06:04:16;12.98;;;6.85;;
32768;SDS011;23049;54.304;8.826;2022-08-03T06:06:42;12.63;;;6.80;;
32768;SDS011;23049;54.304;8.826;2022-08-03T06:09:08;12.80;;;6.82;;
32768;SDS011;23049;54.304;8.826;2022-08-03T06:11:35;20.73;;;7.68;;
32768;SDS011;23049;54.304;8.826;2022-08-03T06:14:01;16.58;;;7.07;;
32768;SDS011;23049;54.304;8.826;2022-08-03T06:16:27;15.95;;;6.05;;
32768;SDS011;23049;54.304;8.826;2022-08-03T06:18:53;11.77;;;6.30;;
32768;SDS011;23049;54.304;8.826;2022-08-03T06:21:18;16.70;;;6.93;;
32768;SDS011;23049;54.304;8.826;2022-08-03T06:23:44;13.05;;;6.38;;
32768;SDS011;23049;54.304;8.826;2022-08-03T06:26:11;10.88;;;5.63;;
32768;SDS011;23049;54.304;8.826;2022-08-03T06:28:37;10.55;;;6.22;;
32768;SDS011;23049;54.304;8.826;2022-08-03T06:31:03;10.75;;;6.10;;
32768;SDS011;23049;54.304;8.826;2022-08-03T06:33:29;14.57;;;5.93;;
32768;SDS011;23049;54.304;8.826;2022-08-03T06:35:55;14.00;;;6.40;;
32768;SDS011;23049;54.304;8.826;2022-08-03T06:38:20;10.95;;;5.85;;
32768;SDS011;23049;54.304;8.826;2022-08-03T06:40:46;15.55;;;6.47;;
32768;SDS011;23049;54.304;8.826;2022-08-03T06:43:11;12.43;;;6.97;;
32768;SDS011;23049;54.304;8.826;2022-08-03T06:45:39;14.15;;;7.35;;
32768;SDS011;23049;54.304;8.826;2022-08-03T06:48:06;15.38;;;8.43;;
32768;SDS011;23049;54.304;8.826;2022-08-03T06:50:36;15.80;;;8.05;;
32768;SDS011;23049;54.304;8.826;2022-08-03T06:53:03;18.75;;;8.27;;
32768;SDS011;23049;54.304;8.826;2022-08-03T06:55:30;11.88;;;8.35;;
32768;SDS011;23049;54.304;8.826;2022-08-03T06:57:56;13.18;;;8.43;;
32768;SDS011;23049;54.304;8.826;2022-08-03T07:00:22;15.70;;;9.05;;
32768;SDS011;23049;54.304;8.826;2022-08-03T07:02:48;15.70;;;9.35;;
32768;SDS011;23049;54.304;8.826;2022-08-03T07:05:15;16.73;;;9.35;;
32768;SDS011;23049;54.304;8.826;2022-08-03T07:07:40;17.63;;;9.68;;
32768;SDS011;23049;54.304;8.826;2022-08-03T07:10:07;15.88;;;9.65;;
32768;SDS011;23049;54.304;8.826;2022-08-03T07:12:33;15.05;;;8.75;;
32768;SDS011;23049;54.304;8.826;2022-08-03T07:15:00;21.48;;;9.40;;
32768;SDS011;23049;54.304;8.826;2022-08-03T07:17:27;17.20;;;9.52;;
32768;SDS011;23049;54.304;8.826;2022-08-03T07:19:54;23.65;;;9.63;;
32768;SDS011;23049;54.304;8.826;2022-08-03T07:22:19;18.98;;;9.70;;
32768;SDS011;23049;54.304;8.826;2022-08-03T07:24:45;17.10;;;10.07;;
32768;SDS011;23049;54.304;8.826;2022-08-03T07:27:11;20.75;;;10.00;;
32768;SDS011;23049;54.304;8.826;2022-08-03T07:29:37;16.77;;;10.75;;
32768;SDS011;23049;54.304;8.826;2022-08-03T07:32:03;19.08;;;11.27;;
32768;SDS011;23049;54.304;8.826;2022-08-03T07:34:29;19.10;;;12.15;;
32768;SDS011;23049;54.304;8.826;2022-08-03T07:36:55;20.73;;;11.68;;
32768;SDS011;23049;54.304;8.826;2022-08-03T07:39:20;15.95;;;11.07;;
32768;SDS011;23049;54.304;8.826;2022-08-03T07:41:46;16.67;;;11.35;;
32768;SDS011;23049;54.304;8.826;2022-08-03T07:44:14;18.85;;;11.73;;
32768;SDS011;23049;54.304;8.826;2022-08-03T07:46:40;19.30;;;11.48;;
32768;SDS011;23049;54.304;8.826;2022-08-03T07:49:06;22.55;;;11.23;;
32768;SDS011;23049;54.304;8.826;2022-08-03T07:51:31;17.25;;;10.15;;
32768;SDS011;23049;54.304;8.826;2022-08-03T07:53:57;17.40;;;10.50;;
32768;SDS011;23049;54.304;8.826;2022-08-03T07:56:24;20.73;;;9.85;;
32768;SDS011;23049;54.304;8.826;2022-08-03T07:58:50;15.57;;;9.30;;
32768;SDS011;23049;54.304;8.826;2022-08-03T08:01:16;14.57;;;10.20;;
32768;SDS011;23049;54.304;8.826;2022-08-03T08:03:43;18.35;;;10.02;;
32768;SDS011;23049;54.304;8.826;2022-08-03T08:06:10;18.95;;;10.55;;
32768;SDS011;23049;54.304;8.826;2022-08-03T08:08:36;13.23;;;8.15;;
32768;SDS011;23049;54.304;8.826;2022-08-03T08:11:02;19.10;;;9.63;;
32768;SDS011;23049;54.304;8.826;2022-08-03T08:13:28;16.60;;;8.60;;
32768;SDS011;23049;54.304;8.826;2022-08-03T08:15:54;17.80;;;9.15;;
32768;SDS011;23049;54.304;8.826;2022-08-03T08:18:19;14.50;;;8.18;;
32768;SDS011;23049;54.304;8.826;2022-08-03T08:23:13;15.30;;;8.18;;
32768;SDS011;23049;54.304;8.826;2022-08-03T08:25:38;15.05;;;7.82;;
32768;SDS011;23049;54.304;8.826;2022-08-03T08:28:04;19.15;;;8.27;;
32768;SDS011;23049;54.304;8.826;2022-08-03T08:30:31;15.00;;;7.53;;
32768;SDS011;23049;54.304;8.826;2022-08-03T08:32:57;15.75;;;6.60;;
32768;SDS011;23049;54.304;8.826;2022-08-03T08:35:23;11.38;;;7.03;;
32768;SDS011;23049;54.304;8.826;2022-08-03T08:37:49;17.70;;;7.18;;
32768;SDS011;23049;54.304;8.826;2022-08-03T08:40:14;13.10;;;7.22;;
32768;SDS011;23049;54.304;8.826;2022-08-03T08:42:41;23.58;;;7.65;;
32768;SDS011;23049;54.304;8.826;2022-08-03T08:45:08;13.95;;;7.03;;
32768;SDS011;23049;54.304;8.826;2022-08-03T08:47:36;16.25;;;8.07;;
32768;SDS011;23049;54.304;8.826;2022-08-03T08:50:03;15.00;;;6.90;;
32768;SDS011;23049;54.304;8.826;2022-08-03T08:52:31;16.08;;;7.63;;
32768;SDS011;23049;54.304;8.826;2022-08-03T08:54:59;21.05;;;6.68;;
32768;SDS011;23049;54.304;8.826;2022-08-03T08:57:28;16.58;;;7.22;;
32768;SDS011;23049;54.304;8.826;2022-08-03T08:59:57;20.45;;;7.63;;
32768;SDS011;23049;54.304;8.826;2022-08-03T09:02:23;15.38;;;6.68;;
32768;SDS011;23049;54.304;8.826;2022-08-03T09:04:50;17.30;;;6.13;;
32768;SDS011;23049;54.304;8.826;2022-08-03T09:07:17;15.27;;;6.68;;
32768;SDS011;23049;54.304;8.826;2022-08-03T09:09:44;17.50;;;7.13;;
32768;SDS011;23049;54.304;8.826;2022-08-03T09:12:09;17.50;;;7.40;;
32768;SDS011;23049;54.304;8.826;2022-08-03T09:14:35;14.23;;;5.97;;
32768;SDS011;23049;54.304;8.826;2022-08-03T09:19:13;14.88;;;7.57;;
32768;SDS011;23049;54.304;8.826;2022-08-03T09:21:39;19.67;;;7.93;;
32768;SDS011;23049;54.304;8.826;2022-08-03T09:24:05;17.98;;;7.50;;
32768;SDS011;23049;54.304;8.826;2022-08-03T09:26:35;18.98;;;7.72;;
32768;SDS011;23049;54.304;8.826;2022-08-03T09:29:03;19.23;;;7.15;;
32768;SDS011;23049;54.304;8.826;2022-08-03T09:31:33;13.68;;;7.28;;
32768;SDS011;23049;54.304;8.826;2022-08-03T09:33:59;14.50;;;7.32;;
32768;SDS011;23049;54.304;8.826;2022-08-03T09:36:37;14.32;;;7.82;;
32768;SDS011;23049;54.304;8.826;2022-08-03T09:39:04;14.10;;;7.25;;
32768;SDS011;23049;54.304;8.826;2022-08-03T09:41:34;16.73;;;8.68;;
32768;SDS011;23049;54.304;8.826;2022-08-03T09:44:01;15.95;;;8.15;;
32768;SDS011;23049;54.304;8.826;2022-08-03T09:46:26;16.20;;;8.32;;
32768;SDS011;23049;54.304;8.826;2022-08-03T09:49:07;20.55;;;8.80;;
32768;SDS011;23049;54.304;8.826;2022-08-03T09:51:36;18.37;;;8.60;;
32768;SDS011;23049;54.304;8.826;2022-08-03T09:54:03;20.23;;;9.10;;
32768;SDS011;23049;54.304;8.826;2022-08-03T09:56:38;15.32;;;8.43;;
32768;SDS011;23049;54.304;8.826;2022-08-03T09:59:09;20.73;;;9.40;;
32768;SDS011;23049;54.304;8.826;2022-08-03T10:01:37;18.15;;;9.32;;
32768;SDS011;23049;54.304;8.826;2022-08-03T10:04:10;22.42;;;8.75;;
32768;SDS011;23049;54.304;8.826;2022-08-03T10:06:44;20.13;;;9.68;;
32768;SDS011;23049;54.304;8.826;2022-08-03T10:09:13;14.93;;;8.75;;
32768;SDS011;23049;54.304;8.826;2022-08-03T10:11:41;15.38;;;8.50;;
32768;SDS011;23049;54.304;8.826;2022-08-03T10:14:08;21.05;;;10.43;;
32768;SDS011;23049;54.304;8.826;2022-08-03T10:16:36;22.88;;;8.55;;
32768;SDS011;23049;54.304;8.826;2022-08-03T10:19:04;14.25;;;8.88;;
32768;SDS011;23049;54.304;8.826;2022-08-03T10:21:32;15.38;;;8.77;;
32768;SDS011;23049;54.304;8.826;2022-08-03T10:24:04;18.95;;;9.52;;
32768;SDS011;23049;54.304;8.826;2022-08-03T10:28:59;17.25;;;8.02;;
32768;SDS011;23049;54.304;8.826;2022-08-03T10:31:33;17.75;;;9.85;;
32768;SDS011;23049;54.304;8.826;2022-08-03T10:34:03;19.48;;;10.05;;
32768;SDS011;23049;54.304;8.826;2022-08-03T10:36:34;14.60;;;8.00;;
32768;SDS011;23049;54.304;8.826;2022-08-03T10:39:02;14.90;;;9.23;;
32768;SDS011;23049;54.304;8.826;2022-08-03T10:41:30;18.95;;;8.57;;
32768;SDS011;23049;54.304;8.826;2022-08-03T10:44:02;18.27;;;8.43;;
32768;SDS011;23049;54.304;8.826;2022-08-03T10:46:30;19.35;;;7.78;;
32768;SDS011;23049;54.304;8.826;2022-08-03T10:48:57;15.80;;;8.32;;
32768;SDS011;23049;54.304;8.826;2022-08-03T10:51:24;15.20;;;8.27;;
32768;SDS011;23049;54.304;8.826;2022-08-03T10:53:54;20.50;;;8.85;;
32768;SDS011;23049;54.304;8.826;2022-08-03T10:59:19;14.68;;;7.25;;
32768;SDS011;23049;54.304;8.826;2022-08-03T11:02:11;18.77;;;7.45;;
32768;SDS011;23049;54.304;8.826;2022-08-03T11:04:38;15.90;;;7.05;;
32768;SDS011;23049;54.304;8.826;2022-08-03T11:09:40;16.08;;;7.05;;
32768;SDS011;23049;54.304;8.826;2022-08-03T11:12:20;14.68;;;6.70;;
32768;SDS011;23049;54.304;8.826;2022-08-03T11:14:46;14.05;;;6.32;;
32768;SDS011;23049;54.304;8.826;2022-08-03T11:17:12;18.58;;;7.28;;
32768;SDS011;23049;54.304;8.826;2022-08-03T11:19:42;12.65;;;6.45;;
32768;SDS011;23049;54.304;8.826;2022-08-03T11:22:12;13.23;;;7.07;;
32768;SDS011;23049;54.304;8.826;2022-08-03T11:35:32;14.82;;;5.53;;
32768;SDS011;23049;54.304;8.826;2022-08-03T11:38:08;17.35;;;7.45;;
32768;SDS011;23049;54.304;8.826;2022-08-03T11:45:58;10.38;;;5.15;;
32768;SDS011;23049;54.304;8.826;2022-08-03T11:51:01;12.30;;;4.55;;
32768;SDS011;23049;54.304;8.826;2022-08-03T11:53:28;12.80;;;4.45;;
32768;SDS011;23049;54.304;8.826;2022-08-03T11:55:57;11.75;;;4.72;;
32768;SDS011;23049;54.304;8.826;2022-08-03T11:58:24;10.77;;;4.43;;
32768;SDS011;23049;54.304;8.826;2022-08-03T12:00:50;9.40;;;3.88;;
32768;SDS011;23049;54.304;8.826;2022-08-03T12:03:16;10.52;;;4.25;;
32768;SDS011;23049;54.304;8.826;2022-08-03T12:05:45;11.55;;;5.25;;
32768;SDS011;23049;54.304;8.826;2022-08-03T12:10:53;14.98;;;4.70;;
32768;SDS011;23049;54.304;8.826;2022-08-03T12:13:20;7.78;;;4.45;;
32768;SDS011;23049;54.304;8.826;2022-08-03T12:15:54;10.60;;;5.05;;
32768;SDS011;23049;54.304;8.826;2022-08-03T12:18:21;9.68;;;3.80;;
32768;SDS011;23049;54.304;8.826;2022-08-03T12:20:48;9.00;;;4.80;;
32768;SDS011;23049;54.304;8.826;2022-08-03T12:23:15;10.23;;;4.70;;
32768;SDS011;23049;54.304;8.826;2022-08-03T12:25:43;11.02;;;5.57;;
32768;SDS011;23049;54.304;8.826;2022-08-03T12:28:16;10.82;;;5.30;;
32768;SDS011;23049;54.304;8.826;2022-08-03T12:30:47;16.67;;;5.40;;
32768;SDS011;23049;54.304;8.826;2022-08-03T12:33:15;11.38;;;4.68;;
32768;SDS011;23049;54.304;8.826;2022-08-03T12:35:44;13.02;;;4.95;;
32768;SDS011;23049;54.304;8.826;2022-08-03T12:38:11;16.52;;;4.80;;
32768;SDS011;23049;54.304;8.826;2022-08-03T12:40:38;10.95;;;4.15;;
32768;SDS011;23049;54.304;8.826;2022-08-03T12:43:10;14.30;;;4.57;;
32768;SDS011;23049;54.304;8.826;2022-08-03T12:45:37;11.38;;;3.65;;
32768;SDS011;23049;54.304;8.826;2022-08-03T12:48:03;10.55;;;4.20;;
32768;SDS011;23049;54.304;8.826;2022-08-03T12:50:34;12.52;;;4.22;;
32768;SDS011;23049;54.304;8.826;2022-08-03T12:53:02;9.55;;;4.13;;
32768;SDS011;23049;54.304;8.826;2022-08-03T12:55:30;9.20;;;4.20;;
32768;SDS011;23049;54.304;8.826;2022-08-03T12:58:00;8.30;;;3.80;;
32768;SDS011;23049;54.304;8.826;2022-08-03T13:00:34;12.77;;;4.28;;
32768;SDS011;23049;54.304;8.826;2022-08-03T13:03:04;10.50;;;3.65;;
32768;SDS011;23049;54.304;8.826;2022-08-03T13:05:31;11.60;;;3.83;;
32768;SDS011;23049;54.304;8.826;2022-08-03T13:13:46;10.48;;;4.10;;
32768;SDS011;23049;54.304;8.826;2022-08-03T13:16:12;10.10;;;4.20;;
32768;SDS011;23049;54.304;8.826;2022-08-03T13:18:38;13.40;;;4.13;;
32768;SDS011;23049;54.304;8.826;2022-08-03T13:21:04;12.13;;;3.90;;
32768;SDS011;23049;54.304;8.826;2022-08-03T13:23:29;10.13;;;3.38;;
32768;SDS011;23049;54.304;8.826;2022-08-03T13:25:55;9.52;;;3.90;;
32768;SDS011;23049;54.304;8.826;2022-08-03T13:28:21;10.55;;;3.47;;
32768;SDS011;23049;54.304;8.826;2022-08-03T13:30:46;9.20;;;4.00;;
32768;SDS011;23049;54.304;8.826;2022-08-03T13:33:12;11.82;;;3.75;;
32768;SDS011;23049;54.304;8.826;2022-08-03T13:35:38;10.43;;;4.45;;
32768;SDS011;23049;54.304;8.826;2022-08-03T13:38:03;9.23;;;3.92;;
32768;SDS011;23049;54.304;8.826;2022-08-03T13:40:29;14.32;;;4.00;;
32768;SDS011;23049;54.304;8.826;2022-08-03T13:42:56;12.98;;;4.38;;
32768;SDS011;23049;54.304;8.826;2022-08-03T13:45:22;10.73;;;4.53;;
32768;SDS011;23049;54.304;8.826;2022-08-03T13:47:48;15.52;;;4.53;;
32768;SDS011;23049;54.304;8.826;2022-08-03T13:50:14;14.07;;;4.97;;
32768;SDS011;23049;54.304;8.826;2022-08-03T13:52:40;10.15;;;4.45;;
32768;SDS011;23049;54.304;8.826;2022-08-03T13:55:06;13.82;;;4.78;;
32768;SDS011;23049;54.304;8.826;2022-08-03T13:57:33;11.73;;;4.32;;
32768;SDS011;23049;54.304;8.826;2022-08-03T14:00:01;14.27;;;4.72;;
32768;SDS011;23049;54.304;8.826;2022-08-03T14:02:28;11.57;;;4.65;;
32768;SDS011;23049;54.304;8.826;2022-08-03T14:04:54;11.65;;;4.50;;
32768;SDS011;23049;54.304;8.826;2022-08-03T14:07:22;9.73;;;4.30;;
32768;SDS011;23049;54.304;8.826;2022-08-03T14:09:48;14.73;;;4.22;;
32768;SDS011;23049;54.304;8.826;2022-08-03T14:12:18;15.07;;;4.85;;
32768;SDS011;23049;54.304;8.826;2022-08-03T14:14:48;10.90;;;4.47;;
32768;SDS011;23049;54.304;8.826;2022-08-03T14:17:14;10.25;;;3.97;;
32768;SDS011;23049;54.304;8.826;2022-08-03T14:19:39;11.30;;;4.97;;
32768;SDS011;23049;54.304;8.826;2022-08-03T14:22:05;7.68;;;3.65;;
32768;SDS011;23049;54.304;8.826;2022-08-03T14:24:31;9.57;;;3.60;;
32768;SDS011;23049;54.304;8.826;2022-08-03T14:26:57;12.40;;;4.25;;
32768;SDS011;23049;54.304;8.826;2022-08-03T14:29:22;12.32;;;4.43;;
32768;SDS011;23049;54.304;8.826;2022-08-03T14:31:48;14.00;;;4.03;;
32768;SDS011;23049;54.304;8.826;2022-08-03T14:34:14;10.40;;;3.67;;
32768;SDS011;23049;54.304;8.826;2022-08-03T14:36:40;12.20;;;3.75;;
32768;SDS011;23049;54.304;8.826;2022-08-03T14:39:06;12.93;;;3.75;;
32768;SDS011;23049;54.304;8.826;2022-08-03T14:41:32;17.33;;;4.50;;
32768;SDS011;23049;54.304;8.826;2022-08-03T14:43:57;10.57;;;3.67;;
32768;SDS011;23049;54.304;8.826;2022-08-03T14:46:23;14.00;;;3.97;;
32768;SDS011;23049;54.304;8.826;2022-08-03T14:48:48;12.18;;;4.47;;
32768;SDS011;23049;54.304;8.826;2022-08-03T14:51:14;11.18;;;4.13;;
32768;SDS011;23049;54.304;8.826;2022-08-03T14:53:40;10.35;;;4.15;;
32768;SDS011;23049;54.304;8.826;2022-08-03T14:56:05;13.10;;;4.20;;
32768;SDS011;23049;54.304;8.826;2022-08-03T14:58:31;10.85;;;4.05;;
32768;SDS011;23049;54.304;8.826;2022-08-03T15:00:57;9.90;;;3.97;;
32768;SDS011;23049;54.304;8.826;2022-08-03T15:03:23;12.25;;;4.18;;
32768;SDS011;23049;54.304;8.826;2022-08-03T15:05:53;13.52;;;4.10;;
32768;SDS011;23049;54.304;8.826;2022-08-03T15:08:20;16.05;;;4.28;;
32768;SDS011;23049;54.304;8.826;2022-08-03T15:10:47;16.77;;;4.47;;
32768;SDS011;23049;54.304;8.826;2022-08-03T15:13:14;11.40;;;4.70;;
32768;SDS011;23049;54.304;8.826;2022-08-03T15:15:40;13.48;;;5.75;;
32768;SDS011;23049;54.304;8.826;2022-08-03T15:18:06;15.25;;;5.90;;
32768;SDS011;23049;54.304;8.826;2022-08-03T15:20:32;17.38;;;6.75;;
32768;SDS011;23049;54.304;8.826;2022-08-03T15:22:58;19.80;;;6.50;;
32768;SDS011;23049;54.304;8.826;2022-08-03T15:25:23;16.35;;;7.72;;
32768;SDS011;23049;54.304;8.826;2022-08-03T15:27:49;17.15;;;7.10;;
32768;SDS011;23049;54.304;8.826;2022-08-03T15:30:15;20.75;;;7.20;;
32768;SDS011;23049;54.304;8.826;2022-08-03T15:32:40;17.05;;;6.78;;
32768;SDS011;23049;54.304;8.826;2022-08-03T15:35:06;24.88;;;9.07;;